Flight Track Log - Related Links

Times and Time Zones

All times are in EDT time to prevent confusion due to time zone crossing. See the N966QS flight status page for this flight to view local times or setup timezone preferences in your user account.

Time Position Orientation Groundspeed Altitude Reporting Facility
EDT Latitude Longitude Course Direction KTS MPH feet Rate Location/Type
Sun 07:03:40 AM 33.8667 -84.3167 196° South 181 208 1,700  Level Atlanta TRACON
Sun 07:04:40 AM 33.8167 -84.3667 220° Southwest 215 247 4,200 1,684 Climbing Atlanta TRACON
Sun 07:05:34 AM 33.7833 -84.3833 203° Southwest 206 237 4,900 421 Climbing Atlanta TRACON
Sun 07:06:34 AM 33.7167 -84.4000 192° South 215 247 5,000 50 Climbing Atlanta TRACON
Sun 07:07:34 AM 33.6500 -84.4000 180° South 218 251 5,000  Level Atlanta TRACON
Sun 07:08:34 AM 33.6000 -84.3833 164° South 233 268 5,000  Level Atlanta TRACON
Sun 07:09:00 AM 33.5446 -84.4685 196° South  Level FlightAware Approximate
Sun 07:09:34 AM 33.5333 -84.3833 180° South 209 241 5,000  Level Atlanta TRACON
Sun 07:10:34 AM 33.4833 -84.3667 164° South 231 266 4,800 -900 Descending Atlanta TRACON
Sun 07:11:34 AM 33.4167 -84.3667 180° South 212 244 3,200 -947 Descending Atlanta TRACON
Sun 07:12:28 AM 33.3667 -84.3500 164° South 215 247 3,000 -111 Descending Atlanta TRACON
Sun 07:13:22 AM 33.3000 -84.3500 180° South 214 246 3,000  Level Atlanta TRACON
Sun 07:14:28 AM 33.2667 -84.3833 220° Southwest 185 213 3,000  Level Atlanta TRACON
Sun 07:15:28 AM 33.2667 -84.4333 270° West 151 174 3,000 -200 Level Atlanta TRACON
Sun 07:16:28 AM 33.3000 -84.4833 309° West 142 163 2,600 -500 Descending Atlanta TRACON
Sun 07:17:28 AM 33.3167 -84.5167 301° West 119 137 2,000 -632 Descending Atlanta TRACON
Sun 07:18:22 AM 33.3333 -84.5333 320° Northwest 125 144 1,400 -158 Descending Atlanta TRACON
Sun 07:19:22 AM 33.3500 -84.5667 301° West 137 158 1,700 714 Climbing Atlanta TRACON
Sun 07:20:28 AM 33.3500 -84.6333 270° West 199 229 2,900 571 Climbing Atlanta TRACON
Sun 07:21:28 AM 33.3000 -84.6333 180° South 211 243 2,900  Level Atlanta TRACON
Sun 07:22:28 AM 33.2500 -84.6000 151° Southeast 225 259 2,900  Level Atlanta TRACON
Sun 07:23:28 AM 33.2000 -84.5500 140° Southeast 230 265 2,900  Level Atlanta TRACON
Sun 07:24:28 AM 33.1833 -84.4833 107° East 229 264 2,900  Level Atlanta TRACON
Sun 07:25:28 AM 33.2167 -84.4333 51° Northeast 199 229 2,900  Level Atlanta TRACON
Sun 07:26:28 AM 33.2667 -84.4500 344° North 162 186 2,900  Level Atlanta TRACON

Login

Don't have an account? Register now (free) for customized features, flight alerts, and more!